Time;durP1;ratioP1;P1;durP2;ratioP2;P2;SDS_P1;SDS_P2;PMS_P1;PMS_P2;Temp;Humidity;BMP_temperature;BMP_pressure;BME280_temperature;BME280_humidity;BME280_pressure;Samples;Min_cycle;Max_cycle;Signal;HPM_P1;HPM_P2
2021/03/01 00:01:43;;;;;;;15.20;8.30;;;3.40;68.90;;;1.49;63.49;97354.84;4937358;28;20061;-72
2021/03/01 00:04:09;;;;;;;14.73;8.82;;;3.30;69.30;;;1.47;64.26;97357.56;4968991;28;20053;-73
2021/03/01 00:06:35;;;;;;;15.25;8.48;;;3.40;69.30;;;1.45;63.92;97359.44;4925730;28;20058;-71
2021/03/01 00:09:01;;;;;;;13.57;8.07;;;3.30;69.50;;;1.45;64.07;97353.41;4932942;28;20150;-73
2021/03/01 00:11:26;;;;;;;14.85;8.50;;;3.30;69.30;;;1.43;64.43;97355.28;4946786;28;20441;-73
2021/03/01 00:13:52;;;;;;;17.17;8.48;;;3.30;69.10;;;1.40;64.16;97355.47;4923286;28;20501;-72
2021/03/01 00:16:18;;;;;;;13.25;8.73;;;3.30;69.10;;;1.38;64.11;97358.19;4935507;28;20253;-72
2021/03/01 00:18:43;;;;;;;14.82;7.97;;;3.30;69.40;;;1.37;64.42;97353.09;4918518;28;20039;-73
2021/03/01 00:21:09;;;;;;;13.02;8.07;;;3.20;69.60;;;1.36;64.32;97344.50;4953941;28;20055;-73
2021/03/01 00:23:35;;;;;;;13.77;8.48;;;3.20;69.80;;;1.36;64.37;97341.03;4936959;28;20870;-73
2021/03/01 00:26:00;;;;;;;13.73;8.70;;;3.20;69.70;;;1.35;64.63;97347.97;4977181;28;20038;-73
2021/03/01 00:28:26;;;;;;;12.45;7.68;;;3.20;69.80;;;1.32;64.76;97347.38;4923355;28;20129;-73
2021/03/01 00:30:52;;;;;;;14.77;8.73;;;3.20;70.30;;;1.30;64.78;97346.63;4922532;28;20030;-72
2021/03/01 00:33:18;;;;;;;16.67;8.65;;;3.10;70.40;;;1.28;64.68;97341.56;4944082;28;20043;-73
2021/03/01 00:35:43;;;;;;;16.67;9.18;;;3.10;70.60;;;1.27;65.27;97345.06;4955354;28;20042;-73
2021/03/01 00:38:09;;;;;;;13.75;8.98;;;3.10;70.70;;;1.27;65.01;97349.44;4932355;28;20062;-73
2021/03/01 00:40:35;;;;;;;13.43;8.25;;;3.10;70.70;;;1.25;64.98;97356.47;4934851;28;20517;-72
2021/03/01 00:43:01;;;;;;;14.55;8.82;;;3.10;70.70;;;1.23;65.50;97348.81;4939761;28;20041;-73
2021/03/01 00:45:26;;;;;;;14.35;8.07;;;3.10;70.50;;;1.23;65.55;97344.47;4948627;28;20030;-73
2021/03/01 00:47:52;;;;;;;14.40;8.25;;;3.10;70.70;;;1.24;65.23;97350.47;4972172;28;20045;-73
2021/03/01 00:50:19;;;;;;;13.32;8.68;;;3.20;70.80;;;1.22;65.59;97353.16;4936425;28;20035;-73
2021/03/01 00:52:45;;;;;;;13.98;8.13;;;3.10;70.80;;;1.25;65.51;97346.13;4931341;28;20493;-73
2021/03/01 00:55:11;;;;;;;14.95;8.98;;;3.10;70.90;;;1.26;65.86;97352.97;4979873;28;20052;-72
2021/03/01 00:57:37;;;;;;;15.18;9.18;;;3.20;71.00;;;1.26;65.99;97347.78;4950258;28;20046;-72
2021/03/01 01:00:14;;;;;;;13.50;8.68;;;3.10;70.90;;;1.26;68.90;97352.97;4956020;28;20506;-72
2021/03/01 01:02:41;;;;;;;16.02;8.70;;;3.20;70.90;;;1.26;66.17;97347.78;4934159;28;20105;-73
2021/03/01 01:05:07;;;;;;;16.27;8.88;;;3.20;71.10;;;1.26;66.21;97350.38;4974253;28;20092;-73
2021/03/01 01:07:33;;;;;;;14.43;8.73;;;3.20;71.10;;;1.22;66.10;97345.38;4916465;28;20579;-73
2021/03/01 01:09:59;;;;;;;16.30;9.23;;;3.20;71.10;;;1.23;66.18;97349.63;4953902;28;20042;-73
2021/03/01 01:12:24;;;;;;;13.77;8.65;;;3.20;71.00;;;1.21;66.07;97346.31;4944282;28;20069;-73
2021/03/01 01:14:50;;;;;;;13.32;8.45;;;3.20;71.30;;;1.20;65.84;97344.66;4937729;28;20034;-72
2021/03/01 01:17:16;;;;;;;17.58;9.05;;;3.20;71.10;;;1.21;66.25;97351.50;4938614;28;20073;-73
2021/03/01 01:19:42;;;;;;;13.73;8.40;;;3.20;71.20;;;1.21;66.27;97355.84;4980745;28;20065;-73
2021/03/01 01:22:07;;;;;;;16.80;8.68;;;3.10;71.40;;;1.21;66.53;97350.66;4960076;28;20058;-72
2021/03/01 01:24:33;;;;;;;14.40;8.88;;;3.20;71.30;;;1.22;66.45;97358.34;4935971;28;20086;-72
2021/03/01 01:26:59;;;;;;;13.32;8.35;;;3.20;71.20;;;1.23;66.19;97354.00;4954089;28;20137;-73
2021/03/01 01:29:24;;;;;;;16.08;8.82;;;3.20;71.10;;;1.23;66.63;97354.81;4934138;28;20038;-73
2021/03/01 01:31:50;;;;;;;13.77;8.80;;;3.10;71.30;;;1.22;66.57;97358.34;4931952;28;20063;-73
2021/03/01 01:34:16;;;;;;;15.77;8.95;;;3.10;71.50;;;1.22;66.71;97358.34;4935172;28;20038;-73
2021/03/01 01:36:42;;;;;;;15.25;8.68;;;3.20;71.60;;;1.20;66.88;97342.06;4915393;28;20481;-73
2021/03/01 01:39:07;;;;;;;15.52;9.25;;;3.10;71.70;;;1.21;66.63;97340.31;4967905;28;20043;-73
2021/03/01 01:41:33;;;;;;;15.07;8.10;;;3.10;71.50;;;1.20;67.03;97339.47;4935383;28;20041;-73
2021/03/01 01:43:59;;;;;;;14.38;8.98;;;3.10;71.70;;;1.19;66.93;97340.41;4951113;28;20425;-73
2021/03/01 01:46:24;;;;;;;14.30;8.48;;;3.10;71.50;;;1.16;66.82;97335.44;4952472;28;20508;-73
2021/03/01 01:48:50;;;;;;;13.52;8.07;;;3.10;71.80;;;1.15;67.07;97336.38;4924445;28;20129;-73
2021/03/01 01:51:16;;;;;;;13.65;8.48;;;3.10;71.70;;;1.15;66.87;97332.94;4948876;28;20041;-72
2021/03/01 01:53:42;;;;;;;17.63;8.88;;;3.10;71.40;;;1.12;66.83;97333.94;4934669;28;20038;-72
2021/03/01 01:56:07;;;;;;;14.80;8.70;;;3.10;71.60;;;1.14;67.00;97331.28;4962320;28;20034;-73
2021/03/01 01:58:33;;;;;;;12.80;7.90;;;3.10;71.50;;;1.13;66.95;97327.88;4929587;28;20089;-73
2021/03/01 02:00:59;;;;;;;13.10;8.43;;;3.10;71.60;;;1.13;67.21;97330.44;4968159;28;20539;-73
2021/03/01 02:03:48;;;;;;;13.20;8.27;;;3.10;71.40;;;1.15;70.18;97327.75;4936221;28;20149;-73
2021/03/01 02:06:27;;;;;;;13.00;8.00;;;3.10;71.60;;;1.14;70.16;97319.16;4923587;28;20129;-73
2021/03/01 02:09:42;;;;;;;14.50;8.32;;;3.10;71.30;;;1.15;70.68;97323.41;4933267;28;20055;-73
2021/03/01 02:12:22;;;;;;;12.63;7.85;;;3.10;71.40;;;1.13;69.59;97324.41;4912245;29;20039;-73
2021/03/01 02:15:14;;;;;;;13.80;8.38;;;3.10;71.60;;;1.12;70.27;97317.56;4971791;28;20117;-73
2021/03/01 02:17:40;;;;;;;15.38;9.20;;;3.10;71.60;;;1.08;66.92;97319.53;4967378;28;20117;-73
2021/03/01 02:20:08;;;;;;;15.85;8.75;;;3.00;71.60;;;1.09;67.09;97315.19;4970082;28;20042;-73
2021/03/01 02:22:34;;;;;;;13.23;8.15;;;3.10;71.60;;;1.06;67.21;97313.63;4942482;28;20382;-73
2021/03/01 02:25:08;;;;;;;13.07;8.15;;;3.00;71.60;;;1.05;68.86;97316.31;4933705;28;20125;-73
2021/03/01 02:28:00;;;;;;;13.82;8.05;;;3.00;71.70;;;1.04;70.52;97312.91;4953570;28;20034;-73
2021/03/01 02:30:51;;;;;;;15.73;8.95;;;3.00;71.60;;;1.05;69.01;97313.72;4947154;28;20034;-72
2021/03/01 02:33:22;;;;;;;19.15;8.38;;;3.00;71.60;;;1.02;69.10;97314.75;4943377;28;20042;-73
2021/03/01 02:35:52;;;;;;;;;;;3.00;71.50;;;0.99;71.23;97314.97;4938545;28;20043;-74
2021/03/01 02:38:26;;;;;;;14.27;8.73;;;2.90;71.60;;;0.96;68.15;97319.53;4942720;28;19925;-73
2021/03/01 02:40:52;;;;;;;15.07;8.82;;;2.90;71.70;;;0.93;67.03;97310.19;4952105;28;20046;-73
2021/03/01 02:43:18;;;;;;;13.55;8.70;;;2.90;71.80;;;0.91;67.73;97317.22;4960232;28;20038;-73
2021/03/01 02:45:44;;;;;;;11.95;7.68;;;2.90;71.90;;;0.89;67.76;97324.25;4938195;28;20633;-73
2021/03/01 02:48:11;;;;;;;14.60;7.90;;;2.80;71.80;;;0.87;67.85;97326.09;4949532;28;20726;-73
2021/03/01 02:50:37;;;;;;;14.02;8.02;;;2.80;72.00;;;0.83;68.16;97314.28;4934239;28;20039;-73
2021/03/01 02:53:02;;;;;;;15.70;7.65;;;2.80;72.10;;;0.83;67.86;97324.66;4938149;28;20038;-73
2021/03/01 02:55:28;;;;;;;15.32;8.50;;;2.80;72.20;;;0.81;67.80;97316.16;4959820;28;20047;-74
2021/03/01 02:57:54;;;;;;;14.27;8.23;;;2.70;72.30;;;0.80;67.90;97319.66;4950964;28;20105;-73
2021/03/01 03:00:22;;;;;;;12.13;7.65;;;2.70;72.30;;;0.77;67.90;97310.34;4936809;28;20058;-73
2021/03/01 03:02:48;;;;;;;15.38;8.35;;;2.70;72.20;;;0.77;68.06;97310.34;4980981;28;20113;-73
2021/03/01 03:05:14;;;;;;;14.07;7.32;;;2.70;72.20;;;0.77;67.89;97312.09;4937354;28;20496;-72
2021/03/01 03:07:41;;;;;;;11.85;7.60;;;2.70;72.10;;;0.75;68.38;97303.59;4929474;28;20502;-73
2021/03/01 03:10:07;;;;;;;11.80;7.70;;;2.70;72.10;;;0.71;68.40;97318.50;4933333;28;20528;-73
2021/03/01 03:12:33;;;;;;;15.43;8.15;;;2.70;72.10;;;0.71;68.51;97321.09;4935899;28;20038;-74
2021/03/01 03:15:01;;;;;;;11.98;7.13;;;2.70;72.10;;;0.70;68.80;97318.63;4918999;28;20138;-74
2021/03/01 03:17:27;;;;;;;16.45;7.97;;;2.60;72.00;;;0.67;68.09;97318.78;4941205;28;20030;-73
2021/03/01 03:19:52;;;;;;;15.40;8.88;;;2.60;72.10;;;0.66;68.28;97319.72;4951549;28;20038;-73
2021/03/01 03:22:18;;;;;;;70.28;39.45;;;2.60;72.10;;;0.65;68.53;97315.47;4945200;28;20097;-72
2021/03/01 03:24:44;;;;;;;88.78;51.00;;;2.60;72.40;;;0.62;68.18;97316.50;4919944;28;20122;-73
2021/03/01 03:27:10;;;;;;;57.80;33.90;;;2.60;72.60;;;0.60;68.27;97319.19;4956591;28;20065;-73
2021/03/01 03:29:36;;;;;;;50.72;30.98;;;2.60;72.60;;;0.60;68.38;97319.19;4934261;28;20135;-73
2021/03/01 03:32:01;;;;;;;60.35;33.45;;;2.60;72.70;;;0.60;68.84;97319.19;4937431;28;20124;-72
2021/03/01 03:34:27;;;;;;;64.30;36.78;;;2.60;73.20;;;0.59;69.05;97320.09;4932142;28;20484;-73
2021/03/01 03:37:13;;;;;;;45.85;27.20;;;2.60;73.40;;;0.59;72.33;97333.06;4953542;28;20117;-71
2021/03/01 03:39:47;;;;;;;20.45;13.25;;;2.70;73.10;;;0.60;71.21;97331.28;4978947;28;20046;-73
2021/03/01 03:42:22;;;;;;;29.73;18.13;;;2.60;72.90;;;0.57;71.37;97332.31;4950008;28;20034;-72
2021/03/01 03:44:49;;;;;;;25.42;16.67;;;2.60;72.90;;;0.55;68.91;97330.75;4945580;28;20038;-72
2021/03/01 03:47:15;;;;;;;25.95;15.05;;;2.60;72.80;;;0.55;68.96;97336.78;4952034;28;20038;-72
2021/03/01 03:49:41;;;;;;;24.63;15.20;;;2.60;72.70;;;0.54;69.23;97335.13;4935719;28;20061;-73
2021/03/01 03:52:06;;;;;;;17.35;10.30;;;2.60;73.00;;;0.53;69.28;97341.22;4929844;28;20539;-72
2021/03/01 03:54:33;;;;;;;14.70;9.20;;;2.50;73.00;;;0.53;69.50;97333.44;4936666;28;20488;-73
2021/03/01 03:56:59;;;;;;;15.15;8.90;;;2.60;73.10;;;0.51;69.64;97332.72;4938808;28;20452;-73
2021/03/01 03:59:29;;;;;;;14.23;8.43;;;2.60;73.30;;;0.54;70.84;97334.28;4938003;28;20046;-73
2021/03/01 04:01:55;;;;;;;18.13;8.55;;;2.60;73.30;;;0.56;69.71;97337.59;4954767;28;20037;-73
2021/03/01 04:04:22;;;;;;;16.55;9.48;;;2.50;73.50;;;0.55;69.52;97336.78;4939476;28;20400;-73
2021/03/01 04:06:48;;;;;;;14.48;8.43;;;2.50;73.40;;;0.59;69.23;97332.22;4946507;28;20528;-73
2021/03/01 04:09:14;;;;;;;17.00;8.98;;;2.60;73.40;;;0.61;69.21;97330.38;4923505;28;20038;-73
2021/03/01 04:11:42;;;;;;;13.25;8.50;;;2.60;73.30;;;0.64;70.15;97326.75;4954118;28;20034;-72
2021/03/01 04:14:08;;;;;;;14.98;9.15;;;2.60;73.20;;;0.67;69.52;97326.56;4945140;28;20095;-73
2021/03/01 04:16:34;;;;;;;12.77;8.43;;;2.60;72.90;;;0.71;69.56;97328.03;4934346;28;20121;-72
2021/03/01 04:19:04;;;;;;;15.65;8.68;;;2.60;72.80;;;0.74;69.94;97335.59;4950057;28;20027;-72
2021/03/01 04:21:29;;;;;;;15.40;8.55;;;2.70;72.70;;;0.76;69.48;97332.00;4950905;28;20062;-73
2021/03/01 04:23:55;;;;;;;12.60;8.02;;;2.70;72.50;;;0.78;69.19;97331.91;4936233;28;20042;-73
2021/03/01 04:26:21;;;;;;;18.27;8.80;;;2.70;72.60;;;0.78;69.23;97331.91;4950824;28;20046;-72
2021/03/01 04:28:47;;;;;;;17.65;9.02;;;2.70;72.50;;;0.79;69.60;97333.56;4937172;28;20103;-73
2021/03/01 04:31:13;;;;;;;15.20;8.82;;;2.80;72.40;;;0.75;69.33;97319.97;4928356;28;20065;-72
2021/03/01 04:33:39;;;;;;;14.05;8.48;;;2.70;72.40;;;0.78;69.04;97326.72;4950151;28;20050;-72
2021/03/01 04:36:05;;;;;;;12.85;8.63;;;2.70;72.30;;;0.77;69.35;97336.25;4960454;28;20069;-72
2021/03/01 04:38:32;;;;;;;13.57;9.07;;;2.80;72.10;;;0.77;68.85;97330.22;4914022;28;20050;-73
2021/03/01 04:40:58;;;;;;;15.13;8.52;;;2.70;71.90;;;0.72;69.03;97333.13;4950740;28;20169;-72
2021/03/01 04:43:24;;;;;;;17.25;9.45;;;2.70;71.90;;;0.72;69.30;97340.06;4952568;28;20158;-73
2021/03/01 04:45:53;;;;;;;14.68;9.18;;;2.60;71.70;;;0.70;69.96;97334.16;4926425;28;20037;-73
2021/03/01 04:48:19;;;;;;;13.32;8.57;;;2.70;71.70;;;0.65;69.11;97331.00;4964084;28;20452;-72
2021/03/01 04:50:49;;;;;;;17.48;9.05;;;2.60;71.80;;;0.63;70.14;97330.28;4937886;28;20034;-71
2021/03/01 04:53:16;;;;;;;13.77;9.00;;;2.60;71.60;;;0.58;69.23;97335.75;4947243;28;20039;-72
2021/03/01 04:55:43;;;;;;;15.30;9.50;;;2.60;71.60;;;0.55;68.90;97333.34;4966176;28;20031;-72
2021/03/01 04:58:08;;;;;;;14.88;9.38;;;2.50;71.60;;;0.52;68.92;97331.78;4918315;28;20050;-72
2021/03/01 05:00:35;;;;;;;15.45;9.60;;;2.50;71.80;;;0.48;69.16;97325.16;4940971;28;20559;-72
2021/03/01 05:03:01;;;;;;;16.20;9.68;;;2.40;71.70;;;0.45;68.89;97330.50;4921508;28;20047;-72
2021/03/01 05:05:27;;;;;;;16.20;9.80;;;2.40;71.80;;;0.41;69.02;97331.63;4937770;28;20036;-72
2021/03/01 05:07:57;;;;;;;15.80;9.60;;;2.40;71.80;;;0.36;69.92;97325.91;4941456;28;20121;-72
2021/03/01 05:10:22;;;;;;;17.35;10.50;;;2.40;71.80;;;0.32;69.00;97323.63;4961398;28;20444;-71
2021/03/01 05:12:48;;;;;;;20.63;10.00;;;2.30;71.60;;;0.30;69.14;97321.13;4960649;28;20045;-71
2021/03/01 05:15:14;;;;;;;14.68;9.65;;;2.20;71.80;;;0.25;69.23;97324.00;4956578;28;20548;-72
2021/03/01 05:17:40;;;;;;;19.00;10.05;;;2.20;71.80;;;0.21;68.89;97322.50;4977045;28;20046;-73
2021/03/01 05:20:06;;;;;;;16.05;10.45;;;2.10;72.10;;;0.16;69.04;97326.31;4956801;28;20440;-72
2021/03/01 05:22:32;;;;;;;16.65;9.73;;;2.10;72.30;;;0.12;68.92;97327.44;4961193;28;20182;-73
2021/03/01 05:24:58;;;;;;;16.30;10.23;;;2.10;72.60;;;0.08;69.04;97320.78;4940982;28;20079;-74
2021/03/01 05:27:24;;;;;;;16.20;9.80;;;2.00;72.70;;;0.04;69.24;97325.31;4940131;28;20413;-73
2021/03/01 05:29:49;;;;;;;18.00;10.13;;;2.00;72.60;;;-0.02;69.35;97325.69;4940396;28;20123;-72
2021/03/01 05:32:15;;;;;;;17.15;10.82;;;2.00;72.80;;;-0.04;69.36;97322.34;4965209;28;20081;-72
2021/03/01 05:34:41;;;;;;;18.98;10.07;;;2.00;72.80;;;-0.04;69.64;97327.53;4955446;28;20058;-73
2021/03/01 05:37:06;;;;;;;17.40;10.48;;;2.00;72.90;;;-0.07;69.67;97323.38;4972126;28;20042;-74
2021/03/01 05:39:32;;;;;;;20.00;9.98;;;2.00;72.90;;;-0.09;69.76;97325.22;4956414;28;20374;-73
2021/03/01 05:41:58;;;;;;;18.85;11.20;;;1.90;72.90;;;-0.10;69.74;97323.56;4962723;28;20063;-71
2021/03/01 05:44:24;;;;;;;17.35;10.48;;;1.90;72.90;;;-0.11;69.75;97329.66;4952722;28;20035;-71
2021/03/01 05:46:50;;;;;;;18.58;10.70;;;1.90;73.00;;;-0.13;69.56;97339.28;4969659;28;20034;-71
2021/03/01 05:49:15;;;;;;;16.88;10.25;;;1.90;73.10;;;-0.16;70.12;97329.13;4971986;28;20046;-71
2021/03/01 05:51:44;;;;;;;16.65;9.80;;;1.90;73.20;;;-0.15;70.15;97335.94;4969343;28;20464;-71
2021/03/01 05:54:11;;;;;;;17.63;10.75;;;1.90;73.30;;;-0.16;70.17;97342.03;4956051;28;20042;-71
2021/03/01 05:56:36;;;;;;;15.65;9.40;;;1.90;73.40;;;-0.15;70.01;97346.28;4949511;28;20061;-72
2021/03/01 05:59:02;;;;;;;20.23;11.45;;;1.90;73.50;;;-0.16;70.46;97344.63;4953785;28;20042;-72
2021/03/01 06:01:28;;;;;;;17.48;10.52;;;1.90;73.80;;;-0.17;70.53;97345.56;4955752;28;20547;-72
2021/03/01 06:03:54;;;;;;;16.88;10.32;;;1.90;73.80;;;-0.16;70.44;97347.22;4963205;28;20034;-72
2021/03/01 06:06:19;;;;;;;18.48;11.27;;;2.00;74.00;;;-0.17;70.73;97342.97;4955339;28;20041;-71
2021/03/01 06:08:45;;;;;;;18.40;10.38;;;2.00;73.80;;;-0.16;70.88;97354.97;4952429;28;20109;-71
2021/03/01 06:11:11;;;;;;;19.15;11.45;;;2.00;73.90;;;-0.15;70.73;97354.06;4962904;28;20034;-71
2021/03/01 06:13:37;;;;;;;35.85;17.48;;;2.00;74.30;;;-0.13;70.96;97348.78;4973839;28;20035;-72
2021/03/01 06:16:04;;;;;;;23.33;13.20;;;2.00;74.70;;;-0.12;71.62;97359.03;4955513;28;20022;-72
2021/03/01 06:18:30;;;;;;;19.13;11.43;;;2.00;74.60;;;-0.09;71.12;97358.84;4926316;28;20515;-72
2021/03/01 06:21:13;;;;;;;19.77;11.77;;;2.00;74.50;;;-0.08;74.35;97359.69;4981643;28;20081;-72
2021/03/01 06:23:40;;;;;;;20.15;11.13;;;2.10;74.50;;;-0.07;71.32;97362.16;4911692;28;20038;-72
2021/03/01 06:26:32;;;;;;;19.17;10.88;;;2.10;74.50;;;-0.03;74.38;97358.47;4934152;28;20392;-71
2021/03/01 06:29:04;;;;;;;22.27;11.80;;;2.10;74.40;;;-0.03;73.45;97362.81;4951527;28;20074;-71
2021/03/01 06:31:47;;;;;;;21.27;11.70;;;2.10;74.70;;;0.00;74.35;97357.47;4982165;28;20070;-73
2021/03/01 06:34:29;;;;;;;22.30;11.93;;;2.20;74.60;;;0.05;74.59;97372.72;4972802;28;20039;-72
2021/03/01 06:37:12;;;;;;;21.08;13.18;;;2.20;74.60;;;0.11;74.30;97374.91;4972900;28;20034;-72
2021/03/01 06:39:48;;;;;;;29.08;16.80;;;2.30;74.40;;;0.15;72.85;97372.06;4953280;28;20436;-71
2021/03/01 06:42:17;;;;;;;28.95;15.38;;;2.30;74.30;;;0.23;72.17;97376.78;4964506;28;20030;-73
2021/03/01 06:44:58;;;;;;;24.98;14.30;;;2.40;74.00;;;0.32;74.16;97373.63;4958444;28;20092;-71
2021/03/01 06:47:43;;;;;;;23.02;13.00;;;2.60;73.90;;;0.40;74.15;97378.31;4994880;28;20096;-72
2021/03/01 06:50:30;;;;;;;26.02;11.45;;;2.70;73.80;;;0.50;73.96;97377.66;4970693;28;20046;-72
2021/03/01 06:53:06;;;;;;;25.63;12.15;;;2.80;73.20;;;0.59;72.31;97379.66;4952323;28;20112;-71
2021/03/01 06:55:32;;;;;;;19.33;12.25;;;2.90;72.90;;;0.72;71.19;97378.91;4965393;28;20113;-70
2021/03/01 06:57:58;;;;;;;17.63;11.38;;;3.10;72.40;;;0.84;71.36;97373.75;4957515;28;20056;-71
2021/03/01 07:00:26;;;;;;;17.33;11.00;;;3.30;71.40;;;1.01;71.60;97380.47;4940439;28;20038;-72
2021/03/01 07:02:53;;;;;;;17.40;10.63;;;3.70;70.20;;;1.19;71.78;97381.88;4952630;28;20031;-71
2021/03/01 07:05:20;;;;;;;17.10;10.50;;;4.10;69.10;;;1.41;71.04;97380.47;4951689;28;20059;-71
2021/03/01 07:07:46;;;;;;;19.45;10.73;;;4.40;67.60;;;1.67;70.88;97379.56;4935234;28;20401;-72
2021/03/01 07:10:12;;;;;;;20.75;10.85;;;4.80;66.50;;;1.93;70.64;97379.56;4944196;28;20038;-72
2021/03/01 07:12:43;;;;;;;19.35;10.80;;;5.20;65.00;;;2.21;70.69;97381.09;4927014;28;20034;-72
2021/03/01 07:15:11;;;;;;;15.65;10.60;;;5.70;62.90;;;2.46;70.16;97379.28;4955301;28;20042;-71
2021/03/01 07:17:38;;;;;;;18.98;10.68;;;6.10;61.80;;;2.73;70.05;97383.50;4955137;28;20423;-71
2021/03/01 07:20:12;;;;;;;17.65;10.57;;;6.30;61.00;;;2.99;68.98;97376.44;4956599;28;20062;-73
2021/03/01 07:22:43;;;;;;;15.75;9.77;;;6.70;59.50;;;3.22;68.51;97387.78;4957313;28;20037;-72
2021/03/01 07:25:12;;;;;;;17.77;11.27;;;7.30;57.60;;;3.49;69.00;97385.75;4955720;28;20524;-72
2021/03/01 07:27:40;;;;;;;16.98;10.13;;;8.00;55.10;;;3.77;68.57;97394.94;4952156;28;20084;-72
2021/03/01 07:30:07;;;;;;;16.17;10.60;;;8.60;53.00;;;4.09;68.83;97389.09;4948516;28;20031;-71
2021/03/01 07:32:33;;;;;;;13.80;9.80;;;9.10;51.30;;;4.40;68.86;97384.94;4936438;28;20031;-71
2021/03/01 07:35:00;;;;;;;15.15;10.40;;;9.70;49.50;;;4.74;68.56;97396.97;4925138;28;20038;-72
2021/03/01 07:37:28;;;;;;;19.02;11.63;;;9.90;47.90;;;5.10;66.82;97395.84;4958696;28;20425;-74
2021/03/01 07:39:54;;;;;;;17.73;10.50;;;10.20;47.70;;;5.49;67.48;97390.97;4955332;28;20105;-72
2021/03/01 07:42:20;;;;;;;14.25;9.60;;;10.50;46.80;;;5.88;67.04;97378.16;4957094;28;20038;-73
2021/03/01 07:44:49;;;;;;;14.93;10.27;;;10.70;46.70;;;6.33;62.89;97394.38;4931795;28;20031;-72
2021/03/01 07:47:14;;;;;;;15.05;9.20;;;11.30;44.30;;;6.74;65.07;97389.03;4943211;28;20033;-73
2021/03/01 07:49:50;;;;;;;14.23;9.07;;;12.00;42.40;;;7.19;59.24;97392.97;4931656;28;20505;-72
2021/03/01 07:52:19;;;;;;;15.68;9.48;;;13.00;39.50;;;7.67;60.19;97393.00;4937664;28;20034;-72
2021/03/01 07:54:55;;;;;;;12.95;9.18;;;14.00;37.10;;;8.17;56.11;97390.16;4983932;28;20502;-72
2021/03/01 07:57:23;;;;;;;13.82;8.75;;;15.00;35.20;;;8.61;61.24;97393.09;4966207;28;20038;-72
2021/03/01 07:59:48;;;;;;;12.90;8.65;;;15.80;33.60;;;8.98;60.47;97385.97;4976555;28;20038;-73
2021/03/01 08:02:17;;;;;;;13.23;9.15;;;16.10;32.40;;;9.38;57.34;97375.06;4946273;28;20504;-72
2021/03/01 08:04:43;;;;;;;15.13;8.93;;;16.80;31.50;;;9.74;58.42;97378.50;4970503;28;20033;-72
2021/03/01 08:07:09;;;;;;;14.55;8.30;;;17.10;30.50;;;10.05;58.85;97384.16;4972964;28;20446;-73
2021/03/01 08:09:48;;;;;;;13.32;8.70;;;17.50;30.20;;;10.45;50.28;97379.31;4957366;28;20385;-73
2021/03/01 08:12:29;;;;;;;15.20;9.25;;;17.90;29.60;;;10.74;49.99;97383.22;4962767;28;20132;-72
2021/03/01 08:14:56;;;;;;;13.32;8.43;;;18.10;29.10;;;10.96;54.10;97387.09;4983583;28;20465;-73
2021/03/01 08:17:28;;;;;;;12.98;8.23;;;18.20;28.80;;;11.23;49.58;97388.66;4974870;28;20047;-73
2021/03/01 08:20:12;;;;;;;15.73;8.40;;;18.80;28.10;;;11.54;46.61;97383.63;4952293;28;20417;-73
2021/03/01 08:23:12;;;;;;;13.57;7.88;;;19.10;27.40;;;11.80;46.54;97382.66;4982273;28;20046;-73
2021/03/01 08:25:53;;;;;;;11.32;8.20;;;19.60;27.00;;;12.07;47.84;97386.75;4980638;28;20404;-73
2021/03/01 08:28:25;;;;;;;13.98;7.95;;;20.00;26.40;;;12.24;46.20;97383.94;4994003;28;20532;-73
2021/03/01 08:30:55;;;;;;;12.30;8.05;;;19.90;26.10;;;12.41;46.03;97389.16;5010540;28;20042;-73
2021/03/01 08:33:30;;;;;;;10.77;8.07;;;20.10;25.90;;;12.63;46.35;97383.16;4962058;28;20035;-73
2021/03/01 08:36:01;;;;;;;10.95;7.78;;;20.40;25.80;;;12.73;44.78;97383.81;4975091;28;20341;-74
2021/03/01 08:38:54;;;;;;;11.35;7.80;;;20.40;25.40;;;13.05;42.45;97382.00;4973642;28;20045;-73
2021/03/01 08:41:33;;;;;;;12.90;7.70;;;20.50;25.30;;;13.25;42.62;97391.19;4943855;28;20575;-73
2021/03/01 08:43:59;;;;;;;11.57;8.40;;;20.90;25.00;;;13.35;47.77;97383.88;4971808;28;20065;-74
2021/03/01 08:46:25;;;;;;;12.45;8.48;;;20.70;24.80;;;13.47;47.21;97392.22;4958618;28;20027;-73
2021/03/01 08:48:53;;;;;;;12.98;8.50;;;20.90;24.60;;;13.71;45.34;97378.81;4976982;28;20041;-74
2021/03/01 08:51:19;;;;;;;13.85;8.90;;;21.10;24.30;;;14.02;45.56;97381.34;4959525;28;20069;-73
2021/03/01 08:53:45;;;;;;;14.52;10.90;;;21.40;24.40;;;14.28;44.75;97385.44;4956827;28;20053;-73
2021/03/01 08:56:26;;;;;;;13.40;9.35;;;21.30;24.40;;;14.58;39.00;97379.19;4971533;28;20125;-72
2021/03/01 08:58:53;;;;;;;13.93;9.15;;;21.60;23.90;;;14.83;42.86;97384.19;4973573;28;20052;-73
2021/03/01 09:01:19;;;;;;;14.02;8.90;;;21.80;24.20;;;14.97;43.90;97378.06;4941130;28;20038;-74
2021/03/01 09:03:45;;;;;;;13.30;9.38;;;21.60;23.80;;;15.14;43.74;97376.00;4957879;28;20046;-73
2021/03/01 09:06:15;;;;;;;13.10;8.07;;;21.70;24.00;;;15.44;40.24;97376.78;4933100;28;20045;-74
2021/03/01 09:08:52;;;;;;;10.93;7.63;;;21.90;23.80;;;15.64;38.68;97374.34;4971580;28;20057;-73
2021/03/01 09:11:24;;;;;;;11.32;7.80;;;22.00;24.10;;;15.85;39.15;97377.81;4952032;28;20038;-73
2021/03/01 09:13:54;;;;;;;9.57;7.45;;;22.10;23.60;;;16.03;40.67;97376.53;4975972;28;20034;-73
2021/03/01 09:16:25;;;;;;;9.70;7.75;;;22.30;23.40;;;16.13;36.70;97363.75;4962204;28;20054;-73
2021/03/01 09:19:12;;;;;;;13.82;8.90;;;21.90;23.40;;;16.40;36.14;97367.41;4947545;28;20039;-73
2021/03/01 09:21:40;;;;;;;15.88;7.75;;;22.10;23.70;;;16.51;38.87;97367.66;4963691;28;20075;-72
2021/03/01 09:24:11;;;;;;;11.05;8.07;;;22.20;23.50;;;16.74;37.26;97369.25;4954694;28;20072;-75
2021/03/01 09:26:40;;;;;;;11.00;7.60;;;22.40;23.40;;;16.88;36.55;97360.34;4953456;28;20512;-74
2021/03/01 09:29:12;;;;;;;10.68;7.20;;;22.30;23.10;;;16.94;35.15;97370.19;4955258;28;20038;-74
2021/03/01 09:31:46;;;;;;;11.07;8.48;;;22.40;23.00;;;17.03;34.80;97369.00;4988395;28;20081;-74
2021/03/01 09:34:13;;;;;;;14.18;8.52;;;22.30;22.80;;;17.11;37.07;97370.66;4990331;28;20413;-75
2021/03/01 09:36:40;;;;;;;10.35;7.53;;;22.40;23.00;;;17.27;36.39;97365.00;4943075;28;20034;-74
2021/03/01 09:39:07;;;;;;;12.20;8.65;;;22.60;22.00;;;17.33;36.65;97368.69;4925905;28;20075;-74
2021/03/01 09:41:39;;;;;;;13.57;8.75;;;22.70;22.10;;;17.43;32.82;97369.16;4958084;28;20189;-74
2021/03/01 09:44:05;;;;;;;13.02;8.88;;;22.80;21.70;;;17.52;35.07;97367.94;4979479;28;20023;-73
2021/03/01 09:46:32;;;;;;;9.52;7.35;;;23.00;21.80;;;17.75;35.73;97368.41;4950162;28;20421;-74
2021/03/01 09:49:03;;;;;;;14.43;7.97;;;23.50;21.50;;;17.89;31.94;97355.13;4963784;28;20026;-73
2021/03/01 09:51:30;;;;;;;12.55;7.70;;;23.50;21.20;;;17.88;34.07;97356.13;4962006;28;20042;-75
2021/03/01 09:54:06;;;;;;;12.88;7.15;;;23.60;21.40;;;18.00;31.84;97355.31;4977815;28;20059;-72
2021/03/01 09:56:42;;;;;;;10.52;6.90;;;23.80;20.50;;;18.26;30.73;97353.66;4941464;28;20046;-73
2021/03/01 09:59:08;;;;;;;10.63;7.22;;;24.40;20.00;;;18.43;34.40;97362.03;4937955;28;20030;-73
2021/03/01 10:01:34;;;;;;;9.48;7.90;;;24.70;19.60;;;18.73;34.40;97343.75;4953872;28;20031;-74
2021/03/01 10:04:00;;;;;;;10.52;7.75;;;25.20;19.00;;;19.14;34.05;97356.72;4971345;28;20038;-73
2021/03/01 10:06:38;;;;;;;12.00;7.93;;;25.90;18.90;;;19.73;29.52;97352.94;4956858;28;20039;-73
2021/03/01 10:09:09;;;;;;;16.55;8.40;;;26.90;17.80;;;20.34;30.25;97347.69;4954789;28;20031;-73
2021/03/01 10:11:34;;;;;;;11.68;7.82;;;27.80;17.10;;;20.80;32.61;97344.56;4968028;28;20037;-74
2021/03/01 10:14:09;;;;;;;10.13;7.40;;;28.40;16.10;;;21.21;27.37;97342.22;4925829;28;20444;-74
2021/03/01 10:16:36;;;;;;;10.50;7.90;;;29.30;15.10;;;21.65;30.53;97343.72;4962552;28;20534;-74
2021/03/01 10:19:23;;;;;;;14.40;9.70;;;30.50;14.40;;;22.10;26.89;97340.56;4947530;28;20086;-72
2021/03/01 10:21:49;;;;;;;9.07;7.53;;;30.90;14.10;;;22.34;30.41;97336.84;4974115;28;20074;-72
2021/03/01 10:24:17;;;;;;;11.80;6.95;;;31.60;13.30;;;22.41;28.46;97337.56;4954369;28;20125;-74
2021/03/01 10:26:54;;;;;;;10.38;6.63;;;31.50;13.20;;;22.47;25.78;97325.09;4954089;28;20244;-74
2021/03/01 10:29:34;;;;;;;7.72;6.22;;;32.20;13.10;;;22.62;24.21;97338.81;4946365;28;20041;-72